Flight Track Log - Related Links

Times and Time Zones

All times are in EDT time to prevent confusion due to time zone crossing. See the SKW7423 flight status page for this flight to view local times or setup timezone preferences in your user account.

Time Position Orientation Groundspeed Altitude Reporting Facility
EDT Latitude Longitude Course Direction KTS MPH feet Rate Location/Type
Tue 09:35:59 PM 33.9333 -118.4667 345° North 205 236 3,000  Level Southern California TRACON
Tue 09:37:11 PM 33.9236 -118.5672 263° West 255 293 3,500 1,791 Climbing Los Angeles Center
Tue 09:38:13 PM 33.9436 -118.6497 286° West 273 314 7,000 2,661 Climbing Los Angeles Center
Tue 09:39:15 PM 34.0186 -118.6681 349° North 262 302 9,000 976 Climbing Los Angeles Center
Tue 09:40:16 PM 34.0925 -118.6603 North 266 306 9,000 341 Level Los Angeles Center
Tue 09:41:00 PM 34.5667 -118.5991 345° North  Level Estimated
Tue 09:41:18 PM 34.1639 -118.6703 353° North 260 299 9,700  Level Los Angeles Center
Tue 09:42:19 PM 34.2492 -118.6831 353° North 304 350 12,100 2,683 Climbing Los Angeles Center
Tue 09:43:21 PM 34.3369 -118.7050 348° North 322 371 15,200 2,683 Climbing Los Angeles Center
Tue 09:44:22 PM 34.4269 -118.7339 345° North 334 384 17,600 2,390 Climbing Los Angeles Center
Tue 09:45:24 PM 34.5217 -118.7647 345° North 352 405 20,100 2,419 Climbing Los Angeles Center
Tue 09:46:26 PM 34.6172 -118.7978 344° North 358 412 22,600 2,439 Climbing Los Angeles Center
Tue 09:47:27 PM 34.7372 -118.8397 344° North 372 428 25,100 2,195 Climbing Los Angeles Center
Tue 09:48:29 PM 34.8411 -118.8775 343° North 385 443 27,100 1,707 Climbing Los Angeles Center
Tue 09:49:30 PM 34.9406 -118.9117 344° North 392 451 28,600 1,415 Climbing Los Angeles Center
Tue 09:50:32 PM 35.0492 -118.9503 344° North 402 463 30,000 683 Climbing Los Angeles Center
Tue 09:51:33 PM 35.1639 -118.9933 343° North 427 491 30,000 927 Level Los Angeles Center
Tue 09:52:35 PM 35.3056 -119.0433 344° North 441 507 31,900 1,645 Climbing Los Angeles Center
Tue 09:53:37 PM 35.4211 -119.0869 343° North 437 503 33,400 1,463 Climbing Los Angeles Center
Tue 09:54:38 PM 35.5353 -119.1300 343° North 433 498 34,900 1,463 Climbing Los Angeles Center
Tue 09:55:40 PM 35.6492 -119.1719 343° North 429 494 36,400 1,463 Climbing Los Angeles Center
Tue 09:56:41 PM 35.7606 -119.2133 343° North 423 487 37,900 780 Climbing Los Angeles Center
Tue 09:57:43 PM 35.8703 -119.2547 343° North 415 478 38,000 60 Climbing Los Angeles Center
Tue 09:58:21 PM 35.9564 -119.2867 343° North 415 478 38,000  Level Oakland Center
Tue 09:59:23 PM 36.0650 -119.3267 343° North 412 474 38,000  Level Oakland Center
Tue 10:00:24 PM 36.1736 -119.3681 343° North 409 471 38,000  Level Oakland Center
Tue 10:01:25 PM 36.2819 -119.4094 343° North 408 470 38,000  Level Oakland Center
Tue 10:02:26 PM 36.3883 -119.4492 343° North 403 464 38,000  Level Oakland Center
Tue 10:03:27 PM 36.4969 -119.4906 343° North 407 468 38,000  Level Oakland Center
Tue 10:04:28 PM 36.6056 -119.5311 343° North 410 472 38,000  Level Oakland Center
Tue 10:05:29 PM 36.7150 -119.5739 343° North 413 475 38,000  Level Oakland Center
Tue 10:06:30 PM 36.8239 -119.6153 343° North 409 471 38,000  Level Oakland Center
Tue 10:07:31 PM 36.9306 -119.6569 343° North 403 464 38,000  Level Oakland Center
Tue 10:08:32 PM 37.0578 -119.7058 343° North 401 461 38,000  Level Oakland Center
Tue 10:09:33 PM 37.1656 -119.7478 343° North 404 465 38,000  Level Oakland Center
Tue 10:10:34 PM 37.2753 -119.7897 343° North 410 472 38,000  Level Oakland Center
Tue 10:11:35 PM 37.3808 -119.8311 343° North 407 468 38,000  Level Oakland Center
Tue 10:12:36 PM 37.4897 -119.8736 343° North 409 471 38,000  Level Oakland Center
Tue 10:13:37 PM 37.5978 -119.9167 342° North 407 468 38,000  Level Oakland Center
Tue 10:14:38 PM 37.7067 -119.9592 343° North 409 471 38,000  Level Oakland Center
Tue 10:15:39 PM 37.8147 -120.0022 343° North 406 467 38,000  Level Oakland Center
Tue 10:16:40 PM 37.9231 -120.0433 343° North 406 467 38,000  Level Oakland Center
Tue 10:17:41 PM 38.0294 -120.0856 343° North 403 464 38,000  Level Oakland Center
Tue 10:18:42 PM 38.1567 -120.1361 343° North 400 460 38,000  Level Oakland Center
Tue 10:19:43 PM 38.2622 -120.1786 342° North 399 459 38,000  Level Oakland Center
Tue 10:20:44 PM 38.3678 -120.2208 343° North 401 461 38,000  Level Oakland Center
Tue 10:21:45 PM 38.4736 -120.2625 343° North 400 460 38,000  Level Oakland Center
Tue 10:22:47 PM 38.5783 -120.3044 343° North 397 457 38,000  Level Oakland Center
Tue 10:23:48 PM 38.6833 -120.3478 342° North 398 458 38,000  Level Oakland Center
Tue 10:24:49 PM 38.7883 -120.3886 343° North 397 457 38,000  Level Oakland Center
Tue 10:25:50 PM 38.8933 -120.4317 342° North 399 459 38,000  Level Oakland Center
Tue 10:26:51 PM 38.9986 -120.4739 343° North 399 459 38,000  Level Oakland Center
Tue 10:27:52 PM 39.1036 -120.5161 343° North 398 458 38,000  Level Oakland Center
Tue 10:28:53 PM 39.2292 -120.5678 342° North 396 456 38,000  Level Oakland Center
Tue 10:29:54 PM 39.3331 -120.6103 342° North 393 452 38,000  Level Oakland Center
Tue 10:30:55 PM 39.4358 -120.6528 342° North 390 449 38,000  Level Oakland Center
Tue 10:31:57 PM 39.5383 -120.6936 343° North 387 445 38,000  Level Oakland Center
Tue 10:32:58 PM 39.6411 -120.7383 341° North 390 449 38,000  Level Oakland Center
Tue 10:33:59 PM 39.7417 -120.7797 342° North 382 440 38,000  Level Oakland Center
Tue 10:35:00 PM 39.8447 -120.8211 343° North 388 447 38,000  Level Oakland Center
Tue 10:36:01 PM 39.9461 -120.8656 341° North 385 443 38,000  Level Oakland Center
Tue 10:37:02 PM 40.0531 -120.9089 343° North 387 445 38,000  Level Oakland Center
Tue 10:38:03 PM 40.1544 -120.9517 342° North 385 443 38,000  Level Oakland Center
Tue 10:39:05 PM 40.2567 -120.9944 342° North 387 445 38,000  Level Oakland Center
Tue 10:40:06 PM 40.3806 -121.0464 342° North 389 448 38,000  Level Oakland Center
Tue 10:41:07 PM 40.4828 -121.0914 341° North 386 444 38,000  Level Oakland Center
Tue 10:42:08 PM 40.5683 -121.1278 342° North 391 450 38,000  Level Oakland Center
Tue 10:43:09 PM 40.6914 -121.1803 342° North 387 445 38,000  Level Oakland Center
Tue 10:44:10 PM 40.7956 -121.2250 342° North 392 451 38,000  Level Oakland Center
Tue 10:45:12 PM 40.8969 -121.2706 341° North 396 456 38,000  Level Oakland Center
Tue 10:46:13 PM 41.0011 -121.3144 342° North 395 455 38,000  Level Oakland Center
Tue 10:47:14 PM 41.1067 -121.3622 341° North 393 452 38,000  Level Oakland Center
Tue 10:48:15 PM 41.2111 -121.4047 343° North 393 452 38,000  Level Oakland Center
Tue 10:49:16 PM 41.3147 -121.4494 342° North 394 453 38,000  Level Oakland Center
Tue 10:50:20 PM 41.4194 -121.4981 341° North 394 453 38,000  Level Seattle Center
Tue 10:51:21 PM 41.5444 -121.5536 342° North 395 455 38,000  Level Seattle Center
Tue 10:52:22 PM 41.6489 -121.5986 342° North 396 456 38,000  Level Seattle Center
Tue 10:53:23 PM 41.7536 -121.6450 342° North 399 459 38,000  Level Seattle Center
Tue 10:54:23 PM 41.8583 -121.6919 342° North 400 460 38,000  Level Seattle Center
Tue 10:55:24 PM 41.9619 -121.7381 342° North 399 459 38,000  Level Seattle Center
Tue 10:56:25 PM 42.0650 -121.7833 342° North 397 457 38,000  Level Seattle Center
Tue 10:57:26 PM 42.1675 -121.8286 342° North 400 460 38,000  Level Seattle Center
Tue 10:58:26 PM 42.2692 -121.8753 341° North 394 453 38,000  Level Seattle Center
Tue 10:59:27 PM 42.3717 -121.9217 342° North 391 450 38,000  Level Seattle Center
Tue 11:00:28 PM 42.4953 -121.9769 342° North 391 450 38,000  Level Seattle Center
Tue 11:01:29 PM 42.5975 -122.0239 341° North 390 449 38,000  Level Seattle Center
Tue 11:02:29 PM 42.7022 -122.0717 341° North 396 456 38,000  Level Seattle Center
Tue 11:03:30 PM 42.8067 -122.1192 342° North 395 455 38,000  Level Seattle Center
Tue 11:04:31 PM 42.9122 -122.1700 341° North 402 463 38,000  Level Seattle Center
Tue 11:05:32 PM 43.0089 -122.2125 342° North 404 465 38,000  Level Seattle Center
Tue 11:06:33 PM 43.1144 -122.2625 341° North 403 464 38,000  Level Seattle Center
Tue 11:07:33 PM 43.2397 -122.3194 342° North 397 457 38,000  Level Seattle Center
Tue 11:08:34 PM 43.3472 -122.3567 346° North 397 457 38,000  Level Seattle Center
Tue 11:09:35 PM 43.4572 -122.3750 353° North 398 458 38,000  Level Seattle Center
Tue 11:10:35 PM 43.5675 -122.3953 352° North 399 459 38,000 -843 Level Seattle Center
Tue 11:11:36 PM 43.6778 -122.4169 352° North 401 461 36,300 -1,869 Descending Seattle Center
Tue 11:12:37 PM 43.7878 -122.4375 352° North 402 463 34,200 -2,066 Descending Seattle Center
Tue 11:13:38 PM 43.9011 -122.4600 352° North 411 473 32,100 -2,132 Descending Seattle Center
Tue 11:14:38 PM 44.0156 -122.4811 352° North 417 480 29,900 -2,281 Descending Seattle Center
Tue 11:15:39 PM 44.1322 -122.5050 352° North 424 488 27,500 -2,361 Descending Seattle Center
Tue 11:16:40 PM 44.2508 -122.5278 352° North 432 497 25,100 -2,410 Descending Seattle Center
Tue 11:17:41 PM 44.3694 -122.5519 352° North 434 499 22,600 -2,479 Descending Seattle Center
Tue 11:18:41 PM 44.4822 -122.5731 352° North 418 481 20,100 -2,380 Descending Seattle Center
Tue 11:19:42 PM 44.5906 -122.5950 352° North 401 461 17,800 -2,459 Descending Seattle Center
Tue 11:20:43 PM 44.7175 -122.6225 351° North 400 460 15,100 -2,560 Descending Seattle Center
Tue 11:20:57 PM 44.7400 -122.6286 349° North 392 451 14,600 -1,846 Descending Seattle Center
Tue 11:21:22 PM 44.7806 -122.6367 352° North 388 447 13,900 -1,915 Descending Seattle Center
Tue 11:21:44 PM 44.8211 -122.6425 354° North 385 443 13,100 -1,900 Descending Seattle Center
Tue 11:22:22 PM 44.8822 -122.6567 351° North 369 425 12,000 -1,100 Descending Seattle Center
Tue 11:22:44 PM 44.9194 -122.6622 354° North 368 423 12,000  Level Seattle Center
Tue 11:23:29 PM 44.9953 -122.6692 356° North 349 402 12,000  Level Seattle Center
Tue 11:23:45 PM 45.0161 -122.6664 North 354 407 12,000 -98 Level Seattle Center
Tue 11:24:30 PM 45.0911 -122.6608 North 347 399 11,900 -98 Descending Seattle Center
Tue 11:24:46 PM 45.1092 -122.6572 North 342 394 11,900 -1,100 Level Seattle Center
Tue 11:25:30 PM 45.1719 -122.6528 North 273 314 10,800 -1,400 Descending Seattle Center
Tue 11:25:46 PM 45.1864 -122.6494 North 288 331 10,500 -1,403 Descending Seattle Center
Tue 11:26:47 PM 45.2631 -122.6414 North 278 320 9,000 -1,472 Descending Seattle Center
Tue 11:27:32 PM 45.3247 -122.6369 North 278 320 7,900 -1,475 Descending Seattle Center
Tue 11:27:48 PM 45.3397 -122.6336 North 277 319 7,500 -1,600 Descending Seattle Center
Tue 11:28:32 PM 45.4033 -122.6294 North 259 298 6,300 -1,500 Descending Seattle Center
Tue 11:28:48 PM 45.4119 -122.6272 10° North 266 306 6,000 -1,279 Descending Seattle Center
Tue 11:29:33 PM 45.4625 -122.6761 326° Northwest 243 280 5,000 -984 Descending Seattle Center
Tue 11:29:49 PM 45.4692 -122.6808 334° Northwest 257 296 5,000 -900 Level Seattle Center
Tue 11:30:33 PM 45.5142 -122.7289 323° Northwest 224 258 4,100 -984 Descending Seattle Center
Tue 11:30:50 PM 45.5214 -122.7325 341° North 237 273 4,000 -984 Descending Seattle Center
Tue 11:31:34 PM 45.5644 -122.7733 326° Northwest 212 244 3,100 -984 Descending Seattle Center
Tue 11:31:51 PM 45.5708 -122.7797 325° Northwest 224 258 3,000 -393 Descending Seattle Center
Tue 11:32:35 PM 45.6169 -122.7767 North 164 189 2,700 -500 Descending Seattle Center
Tue 11:32:51 PM 45.6203 -122.7731 37° Northeast 187 215 2,500 -800 Descending Seattle Center
Tue 11:33:35 PM 45.6253 -122.7208 82° East 154 177 1,900 -885 Descending Seattle Center
Tue 11:33:52 PM 45.6242 -122.7053 96° East 160 184 1,600 -764 Descending Seattle Center
Tue 11:34:30 PM 45.6197 -122.6708 100° East 130 150 1,200 -689 Descending Seattle Center
Tue 11:34:53 PM 45.6161 -122.6517 105° East 149 171 900 -600 Descending Seattle Center
Tue 11:35:30 PM 45.6058 -122.6239 118° Southeast 124 143 600 -400 Descending Seattle Center
Tue 11:35:53 PM 45.6047 -122.6147 100° East 140 161 500 -261 Descending Seattle Center
Tue 11:37:00 PM 45.5887 -122.5969 48° Northeast  Level Estimated

Login

Don't have an account? Register now (free) for customized features, flight alerts, and more!